Aviation Digital Data Service (ADDS)

Output produced by TAFs form (1519 UTC 22 November 2014)
found at http://aviationweather.gov/adds/tafs/
 
KLND 221122Z 2212/2312 24010KT P6SM SCT110 BKN200 WS020/25045KT 
     FM222100 26020G32KT P6SM VCSH SCT060 BKN100 
     FM230100 28015G25KT P6SM VCSH SCT060 
     FM230700 26009KT P6SM SCT080